sensor_id;sensor_type;location;lat;lon;timestamp;P1;durP1;ratioP1;P2;durP2;ratioP2
41903;SDS011;27586;51.124;4.182;2022-07-23T00:00:05;2.15;;;1.42;;
41903;SDS011;27586;51.124;4.182;2022-07-23T00:02:31;1.58;;;1.40;;
41903;SDS011;27586;51.124;4.182;2022-07-23T00:04:57;1.40;;;1.20;;
41903;SDS011;27586;51.124;4.182;2022-07-23T00:07:23;2.03;;;1.20;;
41903;SDS011;27586;51.124;4.182;2022-07-23T00:09:48;1.83;;;1.30;;
41903;SDS011;27586;51.124;4.182;2022-07-23T00:12:14;1.83;;;1.50;;
41903;SDS011;27586;51.124;4.182;2022-07-23T00:14:39;2.95;;;1.50;;
41903;SDS011;27586;51.124;4.182;2022-07-23T00:17:05;1.73;;;1.25;;
41903;SDS011;27586;51.124;4.182;2022-07-23T00:19:31;1.50;;;1.33;;
41903;SDS011;27586;51.124;4.182;2022-07-23T00:21:57;1.77;;;1.38;;
41903;SDS011;27586;51.124;4.182;2022-07-23T00:24:22;1.85;;;1.40;;
41903;SDS011;27586;51.124;4.182;2022-07-23T00:26:48;1.58;;;1.30;;
41903;SDS011;27586;51.124;4.182;2022-07-23T00:29:14;1.75;;;1.50;;
41903;SDS011;27586;51.124;4.182;2022-07-23T00:31:39;1.30;;;1.20;;
41903;SDS011;27586;51.124;4.182;2022-07-23T00:34:06;1.63;;;1.35;;
41903;SDS011;27586;51.124;4.182;2022-07-23T00:36:31;1.80;;;1.50;;
41903;SDS011;27586;51.124;4.182;2022-07-23T00:38:57;1.60;;;1.38;;
41903;SDS011;27586;51.124;4.182;2022-07-23T00:41:23;1.75;;;1.55;;
41903;SDS011;27586;51.124;4.182;2022-07-23T00:43:49;1.48;;;1.17;;
41903;SDS011;27586;51.124;4.182;2022-07-23T00:46:21;1.77;;;1.35;;
41903;SDS011;27586;51.124;4.182;2022-07-23T00:48:48;1.85;;;1.17;;
41903;SDS011;27586;51.124;4.182;2022-07-23T00:51:17;1.77;;;1.40;;
41903;SDS011;27586;51.124;4.182;2022-07-23T00:53:43;1.42;;;1.20;;
41903;SDS011;27586;51.124;4.182;2022-07-23T00:56:10;1.50;;;1.38;;
41903;SDS011;27586;51.124;4.182;2022-07-23T00:58:37;1.02;;;0.93;;
41903;SDS011;27586;51.124;4.182;2022-07-23T01:01:07;2.55;;;1.23;;
41903;SDS011;27586;51.124;4.182;2022-07-23T01:03:34;1.75;;;1.38;;
41903;SDS011;27586;51.124;4.182;2022-07-23T01:06:00;2.83;;;1.35;;
41903;SDS011;27586;51.124;4.182;2022-07-23T01:08:25;1.77;;;1.13;;
41903;SDS011;27586;51.124;4.182;2022-07-23T01:10:51;1.58;;;1.10;;
41903;SDS011;27586;51.124;4.182;2022-07-23T01:13:17;2.08;;;1.30;;
41903;SDS011;27586;51.124;4.182;2022-07-23T01:15:42;1.88;;;1.40;;
41903;SDS011;27586;51.124;4.182;2022-07-23T01:18:08;1.42;;;1.33;;
41903;SDS011;27586;51.124;4.182;2022-07-23T01:20:34;1.30;;;1.10;;
41903;SDS011;27586;51.124;4.182;2022-07-23T01:23:00;1.63;;;1.30;;
41903;SDS011;27586;51.124;4.182;2022-07-23T01:25:26;1.63;;;1.52;;
41903;SDS011;27586;51.124;4.182;2022-07-23T01:27:52;1.98;;;1.40;;
41903;SDS011;27586;51.124;4.182;2022-07-23T01:30:19;1.55;;;1.40;;
41903;SDS011;27586;51.124;4.182;2022-07-23T01:32:45;1.67;;;1.50;;
41903;SDS011;27586;51.124;4.182;2022-07-23T01:35:10;1.33;;;1.20;;
41903;SDS011;27586;51.124;4.182;2022-07-23T01:37:36;1.73;;;1.30;;
41903;SDS011;27586;51.124;4.182;2022-07-23T01:40:02;1.35;;;1.10;;
41903;SDS011;27586;51.124;4.182;2022-07-23T01:42:29;1.98;;;1.40;;
41903;SDS011;27586;51.124;4.182;2022-07-23T01:44:55;1.27;;;1.17;;
41903;SDS011;27586;51.124;4.182;2022-07-23T01:47:20;2.20;;;1.60;;
41903;SDS011;27586;51.124;4.182;2022-07-23T01:49:46;4.10;;;1.63;;
41903;SDS011;27586;51.124;4.182;2022-07-23T01:52:12;2.15;;;1.25;;
41903;SDS011;27586;51.124;4.182;2022-07-23T01:54:38;1.80;;;1.20;;
41903;SDS011;27586;51.124;4.182;2022-07-23T01:57:04;1.98;;;1.05;;
41903;SDS011;27586;51.124;4.182;2022-07-23T01:59:31;1.08;;;0.93;;
41903;SDS011;27586;51.124;4.182;2022-07-23T02:01:56;1.80;;;1.20;;
41903;SDS011;27586;51.124;4.182;2022-07-23T02:04:23;1.70;;;1.20;;
41903;SDS011;27586;51.124;4.182;2022-07-23T02:06:49;1.52;;;1.23;;
41903;SDS011;27586;51.124;4.182;2022-07-23T02:09:16;1.13;;;1.02;;
41903;SDS011;27586;51.124;4.182;2022-07-23T02:11:42;1.45;;;1.00;;
41903;SDS011;27586;51.124;4.182;2022-07-23T02:14:09;1.38;;;1.25;;
41903;SDS011;27586;51.124;4.182;2022-07-23T02:16:35;2.88;;;1.30;;
41903;SDS011;27586;51.124;4.182;2022-07-23T02:19:01;1.40;;;1.23;;
41903;SDS011;27586;51.124;4.182;2022-07-23T02:21:28;1.13;;;1.02;;
41903;SDS011;27586;51.124;4.182;2022-07-23T02:23:54;1.98;;;1.20;;
41903;SDS011;27586;51.124;4.182;2022-07-23T02:26:19;1.70;;;1.40;;
41903;SDS011;27586;51.124;4.182;2022-07-23T02:28:45;2.08;;;1.17;;
41903;SDS011;27586;51.124;4.182;2022-07-23T02:31:11;1.40;;;1.00;;
41903;SDS011;27586;51.124;4.182;2022-07-23T02:33:36;1.90;;;1.40;;
41903;SDS011;27586;51.124;4.182;2022-07-23T02:36:02;1.15;;;1.00;;
41903;SDS011;27586;51.124;4.182;2022-07-23T02:38:28;2.38;;;1.42;;
41903;SDS011;27586;51.124;4.182;2022-07-23T02:40:53;1.30;;;1.13;;
41903;SDS011;27586;51.124;4.182;2022-07-23T02:43:19;1.58;;;1.42;;
41903;SDS011;27586;51.124;4.182;2022-07-23T02:45:45;1.60;;;1.48;;
41903;SDS011;27586;51.124;4.182;2022-07-23T02:48:10;1.20;;;1.05;;
41903;SDS011;27586;51.124;4.182;2022-07-23T02:50:39;1.73;;;1.30;;
41903;SDS011;27586;51.124;4.182;2022-07-23T02:53:04;1.60;;;1.38;;
41903;SDS011;27586;51.124;4.182;2022-07-23T02:55:30;1.60;;;1.27;;
41903;SDS011;27586;51.124;4.182;2022-07-23T02:57:56;1.55;;;1.40;;
41903;SDS011;27586;51.124;4.182;2022-07-23T03:00:22;1.70;;;1.23;;
41903;SDS011;27586;51.124;4.182;2022-07-23T03:02:48;1.20;;;1.10;;
41903;SDS011;27586;51.124;4.182;2022-07-23T03:05:13;1.40;;;1.10;;
41903;SDS011;27586;51.124;4.182;2022-07-23T03:07:39;2.72;;;1.48;;
41903;SDS011;27586;51.124;4.182;2022-07-23T03:10:05;1.65;;;1.55;;
41903;SDS011;27586;51.124;4.182;2022-07-23T03:12:31;2.00;;;1.10;;
41903;SDS011;27586;51.124;4.182;2022-07-23T03:14:57;1.48;;;1.35;;
41903;SDS011;27586;51.124;4.182;2022-07-23T03:17:22;1.42;;;1.13;;
41903;SDS011;27586;51.124;4.182;2022-07-23T03:19:48;1.45;;;1.20;;
41903;SDS011;27586;51.124;4.182;2022-07-23T03:22:14;1.52;;;1.30;;
41903;SDS011;27586;51.124;4.182;2022-07-23T03:24:39;1.85;;;1.20;;
41903;SDS011;27586;51.124;4.182;2022-07-23T03:27:21;1.63;;;1.35;;
41903;SDS011;27586;51.124;4.182;2022-07-23T03:29:54;1.83;;;1.45;;
41903;SDS011;27586;51.124;4.182;2022-07-23T03:32:21;1.38;;;1.27;;
41903;SDS011;27586;51.124;4.182;2022-07-23T03:34:47;1.88;;;1.55;;
41903;SDS011;27586;51.124;4.182;2022-07-23T03:37:14;1.20;;;1.10;;
41903;SDS011;27586;51.124;4.182;2022-07-23T03:39:40;1.48;;;1.20;;
41903;SDS011;27586;51.124;4.182;2022-07-23T03:42:06;1.08;;;0.95;;
41903;SDS011;27586;51.124;4.182;2022-07-23T03:44:32;1.50;;;1.20;;
41903;SDS011;27586;51.124;4.182;2022-07-23T03:46:58;1.70;;;1.20;;
41903;SDS011;27586;51.124;4.182;2022-07-23T03:49:23;2.20;;;1.50;;
41903;SDS011;27586;51.124;4.182;2022-07-23T03:51:49;1.25;;;1.15;;
41903;SDS011;27586;51.124;4.182;2022-07-23T03:54:15;1.48;;;1.17;;
41903;SDS011;27586;51.124;4.182;2022-07-23T03:56:41;1.42;;;1.13;;
41903;SDS011;27586;51.124;4.182;2022-07-23T03:59:07;1.90;;;1.25;;
41903;SDS011;27586;51.124;4.182;2022-07-23T04:01:34;2.58;;;1.63;;
41903;SDS011;27586;51.124;4.182;2022-07-23T04:03:59;1.27;;;1.17;;
41903;SDS011;27586;51.124;4.182;2022-07-23T04:06:26;1.38;;;1.25;;
41903;SDS011;27586;51.124;4.182;2022-07-23T04:08:51;1.85;;;1.50;;
41903;SDS011;27586;51.124;4.182;2022-07-23T04:11:17;1.88;;;1.30;;
41903;SDS011;27586;51.124;4.182;2022-07-23T04:13:43;1.13;;;1.02;;
41903;SDS011;27586;51.124;4.182;2022-07-23T04:16:08;1.23;;;1.00;;
41903;SDS011;27586;51.124;4.182;2022-07-23T04:18:34;1.08;;;1.05;;
41903;SDS011;27586;51.124;4.182;2022-07-23T04:21:00;1.10;;;1.00;;
41903;SDS011;27586;51.124;4.182;2022-07-23T04:23:26;1.08;;;0.98;;
41903;SDS011;27586;51.124;4.182;2022-07-23T04:25:51;1.35;;;1.00;;
41903;SDS011;27586;51.124;4.182;2022-07-23T04:28:17;1.20;;;1.10;;
41903;SDS011;27586;51.124;4.182;2022-07-23T04:30:43;2.03;;;1.40;;
41903;SDS011;27586;51.124;4.182;2022-07-23T04:33:09;1.92;;;1.27;;
41903;SDS011;27586;51.124;4.182;2022-07-23T04:35:35;1.63;;;1.40;;
41903;SDS011;27586;51.124;4.182;2022-07-23T04:38:04;1.50;;;1.40;;
41903;SDS011;27586;51.124;4.182;2022-07-23T04:40:30;1.40;;;1.30;;
41903;SDS011;27586;51.124;4.182;2022-07-23T04:42:56;2.17;;;1.20;;
41903;SDS011;27586;51.124;4.182;2022-07-23T04:45:22;1.40;;;1.13;;
41903;SDS011;27586;51.124;4.182;2022-07-23T04:47:50;1.30;;;1.10;;
41903;SDS011;27586;51.124;4.182;2022-07-23T04:50:16;2.13;;;1.40;;
41903;SDS011;27586;51.124;4.182;2022-07-23T04:52:46;2.10;;;1.52;;
41903;SDS011;27586;51.124;4.182;2022-07-23T04:55:12;1.50;;;1.40;;
41903;SDS011;27586;51.124;4.182;2022-07-23T04:57:38;1.25;;;1.15;;
41903;SDS011;27586;51.124;4.182;2022-07-23T05:00:04;1.98;;;1.50;;
41903;SDS011;27586;51.124;4.182;2022-07-23T05:02:30;1.60;;;1.40;;
41903;SDS011;27586;51.124;4.182;2022-07-23T05:04:56;2.28;;;1.45;;
41903;SDS011;27586;51.124;4.182;2022-07-23T05:07:21;1.40;;;1.23;;
41903;SDS011;27586;51.124;4.182;2022-07-23T05:09:47;2.17;;;1.30;;
41903;SDS011;27586;51.124;4.182;2022-07-23T05:12:13;1.50;;;1.40;;
41903;SDS011;27586;51.124;4.182;2022-07-23T05:14:38;1.52;;;1.33;;
41903;SDS011;27586;51.124;4.182;2022-07-23T05:17:04;1.95;;;1.30;;
41903;SDS011;27586;51.124;4.182;2022-07-23T05:19:30;1.75;;;1.55;;
41903;SDS011;27586;51.124;4.182;2022-07-23T05:21:55;2.00;;;1.55;;
41903;SDS011;27586;51.124;4.182;2022-07-23T05:24:21;2.00;;;1.48;;
41903;SDS011;27586;51.124;4.182;2022-07-23T05:26:47;2.70;;;1.88;;
41903;SDS011;27586;51.124;4.182;2022-07-23T05:29:12;2.17;;;1.30;;
41903;SDS011;27586;51.124;4.182;2022-07-23T05:31:38;2.63;;;1.50;;
41903;SDS011;27586;51.124;4.182;2022-07-23T05:34:04;2.65;;;1.45;;
41903;SDS011;27586;51.124;4.182;2022-07-23T05:36:30;1.88;;;1.77;;
41903;SDS011;27586;51.124;4.182;2022-07-23T05:38:57;1.58;;;1.48;;
41903;SDS011;27586;51.124;4.182;2022-07-23T05:41:23;2.25;;;1.40;;
41903;SDS011;27586;51.124;4.182;2022-07-23T05:43:49;2.05;;;1.50;;
41903;SDS011;27586;51.124;4.182;2022-07-23T05:46:14;2.08;;;1.58;;
41903;SDS011;27586;51.124;4.182;2022-07-23T05:48:40;1.92;;;1.35;;
41903;SDS011;27586;51.124;4.182;2022-07-23T05:51:07;1.95;;;1.52;;
41903;SDS011;27586;51.124;4.182;2022-07-23T05:53:33;1.73;;;1.25;;
41903;SDS011;27586;51.124;4.182;2022-07-23T05:56:00;2.92;;;1.75;;
41903;SDS011;27586;51.124;4.182;2022-07-23T05:58:26;2.15;;;1.50;;
41903;SDS011;27586;51.124;4.182;2022-07-23T06:00:52;1.42;;;1.00;;
41903;SDS011;27586;51.124;4.182;2022-07-23T06:03:18;1.70;;;1.48;;
41903;SDS011;27586;51.124;4.182;2022-07-23T06:05:43;1.98;;;1.50;;
41903;SDS011;27586;51.124;4.182;2022-07-23T06:08:09;1.25;;;1.15;;
41903;SDS011;27586;51.124;4.182;2022-07-23T06:10:35;1.60;;;1.13;;
41903;SDS011;27586;51.124;4.182;2022-07-23T06:13:00;1.50;;;1.38;;
41903;SDS011;27586;51.124;4.182;2022-07-23T06:15:26;1.20;;;1.10;;
41903;SDS011;27586;51.124;4.182;2022-07-23T06:17:52;1.95;;;1.23;;
41903;SDS011;27586;51.124;4.182;2022-07-23T06:20:17;1.58;;;1.13;;
41903;SDS011;27586;51.124;4.182;2022-07-23T06:22:43;2.03;;;1.42;;
41903;SDS011;27586;51.124;4.182;2022-07-23T06:25:09;2.38;;;1.50;;
41903;SDS011;27586;51.124;4.182;2022-07-23T06:27:34;2.17;;;1.75;;
41903;SDS011;27586;51.124;4.182;2022-07-23T06:30:00;2.35;;;1.40;;
41903;SDS011;27586;51.124;4.182;2022-07-23T06:32:26;2.25;;;1.52;;
41903;SDS011;27586;51.124;4.182;2022-07-23T06:34:51;1.98;;;1.60;;
41903;SDS011;27586;51.124;4.182;2022-07-23T06:37:17;1.98;;;1.48;;
41903;SDS011;27586;51.124;4.182;2022-07-23T06:39:43;1.50;;;1.30;;
41903;SDS011;27586;51.124;4.182;2022-07-23T06:42:09;2.20;;;1.50;;
41903;SDS011;27586;51.124;4.182;2022-07-23T06:44:36;1.95;;;1.75;;
41903;SDS011;27586;51.124;4.182;2022-07-23T06:47:02;2.13;;;1.75;;
41903;SDS011;27586;51.124;4.182;2022-07-23T06:49:28;1.50;;;1.35;;
41903;SDS011;27586;51.124;4.182;2022-07-23T06:51:53;2.72;;;1.95;;
41903;SDS011;27586;51.124;4.182;2022-07-23T06:54:19;1.92;;;1.67;;
41903;SDS011;27586;51.124;4.182;2022-07-23T06:56:44;3.30;;;1.80;;
41903;SDS011;27586;51.124;4.182;2022-07-23T06:59:10;2.30;;;1.58;;
41903;SDS011;27586;51.124;4.182;2022-07-23T07:01:36;1.88;;;1.50;;
41903;SDS011;27586;51.124;4.182;2022-07-23T07:04:02;2.20;;;1.65;;
41903;SDS011;27586;51.124;4.182;2022-07-23T07:06:28;2.80;;;1.70;;
41903;SDS011;27586;51.124;4.182;2022-07-23T07:08:53;1.70;;;1.35;;
41903;SDS011;27586;51.124;4.182;2022-07-23T07:11:20;1.70;;;1.27;;
41903;SDS011;27586;51.124;4.182;2022-07-23T07:13:46;2.00;;;1.67;;
41903;SDS011;27586;51.124;4.182;2022-07-23T07:16:12;2.55;;;1.70;;
41903;SDS011;27586;51.124;4.182;2022-07-23T07:18:37;1.30;;;1.20;;
41903;SDS011;27586;51.124;4.182;2022-07-23T07:21:03;1.50;;;1.33;;
41903;SDS011;27586;51.124;4.182;2022-07-23T07:23:29;1.60;;;1.33;;
41903;SDS011;27586;51.124;4.182;2022-07-23T07:25:54;2.47;;;1.60;;
41903;SDS011;27586;51.124;4.182;2022-07-23T07:28:20;1.83;;;1.67;;
41903;SDS011;27586;51.124;4.182;2022-07-23T07:30:46;1.77;;;1.50;;
41903;SDS011;27586;51.124;4.182;2022-07-23T07:33:11;1.70;;;1.27;;
41903;SDS011;27586;51.124;4.182;2022-07-23T07:35:37;1.67;;;1.38;;
41903;SDS011;27586;51.124;4.182;2022-07-23T07:38:03;2.03;;;1.67;;
41903;SDS011;27586;51.124;4.182;2022-07-23T07:40:28;2.35;;;1.05;;
41903;SDS011;27586;51.124;4.182;2022-07-23T07:42:54;2.05;;;1.10;;
41903;SDS011;27586;51.124;4.182;2022-07-23T07:45:22;1.77;;;1.10;;
41903;SDS011;27586;51.124;4.182;2022-07-23T07:47:48;1.58;;;1.27;;
41903;SDS011;27586;51.124;4.182;2022-07-23T07:50:15;2.60;;;1.30;;
41903;SDS011;27586;51.124;4.182;2022-07-23T07:52:40;3.10;;;1.73;;
41903;SDS011;27586;51.124;4.182;2022-07-23T07:55:08;1.70;;;1.20;;
41903;SDS011;27586;51.124;4.182;2022-07-23T07:57:35;1.88;;;1.48;;
41903;SDS011;27586;51.124;4.182;2022-07-23T08:00:02;1.75;;;1.20;;
41903;SDS011;27586;51.124;4.182;2022-07-23T08:02:38;1.70;;;1.17;;
41903;SDS011;27586;51.124;4.182;2022-07-23T08:05:07;1.52;;;1.20;;
41903;SDS011;27586;51.124;4.182;2022-07-23T08:07:33;2.53;;;1.48;;
41903;SDS011;27586;51.124;4.182;2022-07-23T08:09:59;1.58;;;1.17;;
41903;SDS011;27586;51.124;4.182;2022-07-23T08:12:25;1.27;;;1.10;;
41903;SDS011;27586;51.124;4.182;2022-07-23T08:14:50;1.40;;;1.20;;
41903;SDS011;27586;51.124;4.182;2022-07-23T08:17:16;2.15;;;1.15;;
41903;SDS011;27586;51.124;4.182;2022-07-23T08:19:42;1.88;;;1.08;;
41903;SDS011;27586;51.124;4.182;2022-07-23T08:22:07;3.83;;;1.10;;
41903;SDS011;27586;51.124;4.182;2022-07-23T08:24:33;1.80;;;1.30;;
41903;SDS011;27586;51.124;4.182;2022-07-23T08:26:59;2.30;;;1.60;;
41903;SDS011;27586;51.124;4.182;2022-07-23T08:29:24;2.00;;;1.30;;
41903;SDS011;27586;51.124;4.182;2022-07-23T08:31:50;1.50;;;1.20;;
41903;SDS011;27586;51.124;4.182;2022-07-23T08:34:16;2.88;;;1.40;;
41903;SDS011;27586;51.124;4.182;2022-07-23T08:36:41;2.22;;;1.15;;
41903;SDS011;27586;51.124;4.182;2022-07-23T08:39:07;1.30;;;1.20;;
41903;SDS011;27586;51.124;4.182;2022-07-23T08:41:33;2.42;;;1.63;;
41903;SDS011;27586;51.124;4.182;2022-07-23T08:43:59;2.22;;;1.52;;
41903;SDS011;27586;51.124;4.182;2022-07-23T08:46:26;1.58;;;1.20;;
41903;SDS011;27586;51.124;4.182;2022-07-23T08:48:52;2.55;;;1.40;;
41903;SDS011;27586;51.124;4.182;2022-07-23T08:51:19;2.70;;;1.33;;
41903;SDS011;27586;51.124;4.182;2022-07-23T08:53:46;1.35;;;1.10;;
41903;SDS011;27586;51.124;4.182;2022-07-23T08:56:12;1.85;;;1.67;;
41903;SDS011;27586;51.124;4.182;2022-07-23T08:58:38;3.13;;;1.50;;
41903;SDS011;27586;51.124;4.182;2022-07-23T09:01:04;1.95;;;1.13;;
41903;SDS011;27586;51.124;4.182;2022-07-23T09:03:33;1.60;;;1.35;;
41903;SDS011;27586;51.124;4.182;2022-07-23T09:06:01;2.35;;;1.30;;
41903;SDS011;27586;51.124;4.182;2022-07-23T09:11:00;1.58;;;1.13;;
41903;SDS011;27586;51.124;4.182;2022-07-23T09:13:32;1.40;;;1.02;;
41903;SDS011;27586;51.124;4.182;2022-07-23T09:16:05;1.50;;;0.90;;
41903;SDS011;27586;51.124;4.182;2022-07-23T09:21:24;1.80;;;1.20;;
41903;SDS011;27586;51.124;4.182;2022-07-23T09:23:58;1.75;;;1.10;;
41903;SDS011;27586;51.124;4.182;2022-07-23T09:26:28;1.50;;;1.30;;
41903;SDS011;27586;51.124;4.182;2022-07-23T09:29:12;1.08;;;0.98;;
41903;SDS011;27586;51.124;4.182;2022-07-23T09:36:53;1.10;;;1.00;;
41903;SDS011;27586;51.124;4.182;2022-07-23T09:39:31;1.23;;;1.02;;
41903;SDS011;27586;51.124;4.182;2022-07-23T09:41:58;1.20;;;1.10;;
41903;SDS011;27586;51.124;4.182;2022-07-23T09:44:42;0.77;;;0.77;;
41903;SDS011;27586;51.124;4.182;2022-07-23T09:47:10;0.73;;;0.70;;
41903;SDS011;27586;51.124;4.182;2022-07-23T09:49:35;1.73;;;1.10;;
41903;SDS011;27586;51.124;4.182;2022-07-23T09:52:01;1.60;;;0.82;;
41903;SDS011;27586;51.124;4.182;2022-07-23T09:54:35;1.73;;;0.90;;
41903;SDS011;27586;51.124;4.182;2022-07-23T09:57:06;0.85;;;0.80;;
41903;SDS011;27586;51.124;4.182;2022-07-23T09:59:36;0.70;;;0.68;;
41903;SDS011;27586;51.124;4.182;2022-07-23T10:02:04;0.60;;;0.60;;
41903;SDS011;27586;51.124;4.182;2022-07-23T10:04:31;0.93;;;0.80;;
41903;SDS011;27586;51.124;4.182;2022-07-23T10:06:59;0.90;;;0.68;;
41903;SDS011;27586;51.124;4.182;2022-07-23T10:09:30;1.05;;;0.82;;
41903;SDS011;27586;51.124;4.182;2022-07-23T10:12:00;1.38;;;0.88;;
41903;SDS011;27586;51.124;4.182;2022-07-23T10:14:40;0.70;;;0.70;;
41903;SDS011;27586;51.124;4.182;2022-07-23T10:17:07;0.73;;;0.73;;
41903;SDS011;27586;51.124;4.182;2022-07-23T10:19:33;0.70;;;0.68;;
41903;SDS011;27586;51.124;4.182;2022-07-23T10:22:00;0.70;;;0.70;;
41903;SDS011;27586;51.124;4.182;2022-07-23T10:24:38;1.10;;;1.00;;
41903;SDS011;27586;51.124;4.182;2022-07-23T10:30:22;0.82;;;0.82;;
41903;SDS011;27586;51.124;4.182;2022-07-23T10:36:19;0.60;;;0.52;;
41903;SDS011;27586;51.124;4.182;2022-07-23T10:38:54;1.00;;;0.52;;
41903;SDS011;27586;51.124;4.182;2022-07-23T10:41:41;1.33;;;0.98;;
41903;SDS011;27586;51.124;4.182;2022-07-23T10:44:08;1.17;;;1.08;;
41903;SDS011;27586;51.124;4.182;2022-07-23T10:46:54;1.00;;;0.80;;
41903;SDS011;27586;51.124;4.182;2022-07-23T10:49:27;0.80;;;0.80;;
41903;SDS011;27586;51.124;4.182;2022-07-23T10:54:43;0.90;;;0.73;;
41903;SDS011;27586;51.124;4.182;2022-07-23T10:57:10;0.50;;;0.50;;
41903;SDS011;27586;51.124;4.182;2022-07-23T11:02:34;0.40;;;0.40;;
41903;SDS011;27586;51.124;4.182;2022-07-23T11:05:04;0.65;;;0.60;;
41903;SDS011;27586;51.124;4.182;2022-07-23T11:07:30;1.30;;;0.80;;
41903;SDS011;27586;51.124;4.182;2022-07-23T11:09:56;1.00;;;0.70;;
41903;SDS011;27586;51.124;4.182;2022-07-23T11:15:12;0.55;;;0.55;;
41903;SDS011;27586;51.124;4.182;2022-07-23T11:17:58;1.13;;;0.70;;
41903;SDS011;27586;51.124;4.182;2022-07-23T11:20:25;0.57;;;0.57;;
41903;SDS011;27586;51.124;4.182;2022-07-23T11:22:55;0.32;;;0.32;;
41903;SDS011;27586;51.124;4.182;2022-07-23T11:27:53;0.45;;;0.45;;
41903;SDS011;27586;51.124;4.182;2022-07-23T11:32:54;0.45;;;0.45;;
41903;SDS011;27586;51.124;4.182;2022-07-23T11:35:43;0.47;;;0.47;;
41903;SDS011;27586;51.124;4.182;2022-07-23T11:40:48;0.65;;;0.63;;
41903;SDS011;27586;51.124;4.182;2022-07-23T11:43:19;0.82;;;0.60;;
41903;SDS011;27586;51.124;4.182;2022-07-23T11:45:46;0.55;;;0.40;;
41903;SDS011;27586;51.124;4.182;2022-07-23T11:50:43;0.47;;;0.47;;
41903;SDS011;27586;51.124;4.182;2022-07-23T11:53:09;0.40;;;0.40;;
41903;SDS011;27586;51.124;4.182;2022-07-23T11:55:35;0.95;;;0.50;;
41903;SDS011;27586;51.124;4.182;2022-07-23T11:58:01;0.60;;;0.60;;
41903;SDS011;27586;51.124;4.182;2022-07-23T12:00:28;0.63;;;0.60;;
41903;SDS011;27586;51.124;4.182;2022-07-23T12:03:02;0.63;;;0.60;;
41903;SDS011;27586;51.124;4.182;2022-07-23T12:05:30;0.75;;;0.70;;
41903;SDS011;27586;51.124;4.182;2022-07-23T12:07:58;0.77;;;0.77;;
41903;SDS011;27586;51.124;4.182;2022-07-23T12:13:02;0.40;;;0.40;;
41903;SDS011;27586;51.124;4.182;2022-07-23T12:15:34;0.65;;;0.60;;
41903;SDS011;27586;51.124;4.182;2022-07-23T12:18:03;0.50;;;0.50;;
41903;SDS011;27586;51.124;4.182;2022-07-23T12:20:31;1.17;;;0.40;;
41903;SDS011;27586;51.124;4.182;2022-07-23T12:22:59;0.57;;;0.50;;
41903;SDS011;27586;51.124;4.182;2022-07-23T12:25:32;0.50;;;0.50;;
41903;SDS011;27586;51.124;4.182;2022-07-23T12:28:07;0.70;;;0.70;;
41903;SDS011;27586;51.124;4.182;2022-07-23T12:30:57;0.40;;;0.40;;
41903;SDS011;27586;51.124;4.182;2022-07-23T12:35:51;0.60;;;0.60;;
41903;SDS011;27586;51.124;4.182;2022-07-23T12:38:19;0.88;;;0.77;;
41903;SDS011;27586;51.124;4.182;2022-07-23T12:40:50;0.30;;;0.30;;
41903;SDS011;27586;51.124;4.182;2022-07-23T12:43:26;0.95;;;0.75;;
41903;SDS011;27586;51.124;4.182;2022-07-23T12:46:02;0.88;;;0.65;;
41903;SDS011;27586;51.124;4.182;2022-07-23T12:48:33;0.47;;;0.47;;
41903;SDS011;27586;51.124;4.182;2022-07-23T12:51:04;0.75;;;0.70;;
41903;SDS011;27586;51.124;4.182;2022-07-23T13:01:29;0.77;;;0.77;;
41903;SDS011;27586;51.124;4.182;2022-07-23T13:06:43;0.95;;;0.73;;
41903;SDS011;27586;51.124;4.182;2022-07-23T13:09:12;1.48;;;0.70;;
41903;SDS011;27586;51.124;4.182;2022-07-23T13:11:43;0.57;;;0.50;;
41903;SDS011;27586;51.124;4.182;2022-07-23T13:14:10;0.75;;;0.73;;
41903;SDS011;27586;51.124;4.182;2022-07-23T13:16:37;0.85;;;0.50;;
41903;SDS011;27586;51.124;4.182;2022-07-23T13:19:03;0.60;;;0.60;;
41903;SDS011;27586;51.124;4.182;2022-07-23T13:21:28;0.95;;;0.80;;
41903;SDS011;27586;51.124;4.182;2022-07-23T13:23:55;1.13;;;0.95;;
41903;SDS011;27586;51.124;4.182;2022-07-23T13:26:21;1.05;;;0.70;;
41903;SDS011;27586;51.124;4.182;2022-07-23T13:28:46;0.95;;;0.70;;
41903;SDS011;27586;51.124;4.182;2022-07-23T13:31:12;0.63;;;0.60;;
41903;SDS011;27586;51.124;4.182;2022-07-23T13:33:38;0.90;;;0.80;;
41903;SDS011;27586;51.124;4.182;2022-07-23T13:36:04;3.50;;;0.82;;
41903;SDS011;27586;51.124;4.182;2022-07-23T13:38:30;0.80;;;0.80;;
41903;SDS011;27586;51.124;4.182;2022-07-23T13:40:56;1.60;;;0.88;;
41903;SDS011;27586;51.124;4.182;2022-07-23T13:43:22;1.02;;;0.88;;
41903;SDS011;27586;51.124;4.182;2022-07-23T13:45:49;0.95;;;0.85;;
41903;SDS011;27586;51.124;4.182;2022-07-23T13:48:16;1.13;;;0.95;;
41903;SDS011;27586;51.124;4.182;2022-07-23T13:50:43;0.98;;;0.80;;
41903;SDS011;27586;51.124;4.182;2022-07-23T13:53:11;0.68;;;0.68;;
41903;SDS011;27586;51.124;4.182;2022-07-23T13:55:49;1.83;;;0.90;;
41903;SDS011;27586;51.124;4.182;2022-07-23T13:58:16;0.75;;;0.70;;
41903;SDS011;27586;51.124;4.182;2022-07-23T14:00:44;1.67;;;0.88;;
41903;SDS011;27586;51.124;4.182;2022-07-23T14:03:12;0.70;;;0.70;;
41903;SDS011;27586;51.124;4.182;2022-07-23T14:05:38;0.90;;;0.85;;
41903;SDS011;27586;51.124;4.182;2022-07-23T14:08:04;1.17;;;1.08;;
41903;SDS011;27586;51.124;4.182;2022-07-23T14:10:30;1.30;;;0.90;;
41903;SDS011;27586;51.124;4.182;2022-07-23T14:12:56;1.50;;;0.80;;
41903;SDS011;27586;51.124;4.182;2022-07-23T14:15:23;1.35;;;0.80;;
41903;SDS011;27586;51.124;4.182;2022-07-23T14:17:49;1.58;;;0.90;;
41903;SDS011;27586;51.124;4.182;2022-07-23T14:20:15;0.93;;;0.82;;
41903;SDS011;27586;51.124;4.182;2022-07-23T14:22:41;0.93;;;0.85;;
41903;SDS011;27586;51.124;4.182;2022-07-23T14:25:07;1.38;;;1.00;;
41903;SDS011;27586;51.124;4.182;2022-07-23T14:27:34;1.45;;;0.80;;
41903;SDS011;27586;51.124;4.182;2022-07-23T14:30:02;1.27;;;0.88;;
41903;SDS011;27586;51.124;4.182;2022-07-23T14:32:29;1.17;;;0.88;;
41903;SDS011;27586;51.124;4.182;2022-07-23T14:34:54;1.27;;;0.90;;
41903;SDS011;27586;51.124;4.182;2022-07-23T14:37:20;0.93;;;0.93;;
41903;SDS011;27586;51.124;4.182;2022-07-23T14:39:46;1.10;;;0.80;;
41903;SDS011;27586;51.124;4.182;2022-07-23T14:42:12;1.10;;;1.00;;
41903;SDS011;27586;51.124;4.182;2022-07-23T14:44:39;1.83;;;1.00;;
41903;SDS011;27586;51.124;4.182;2022-07-23T14:47:05;1.17;;;0.98;;
41903;SDS011;27586;51.124;4.182;2022-07-23T14:49:31;1.05;;;0.95;;
41903;SDS011;27586;51.124;4.182;2022-07-23T14:51:57;2.15;;;1.02;;
41903;SDS011;27586;51.124;4.182;2022-07-23T14:54:24;1.52;;;1.27;;
41903;SDS011;27586;51.124;4.182;2022-07-23T14:56:51;1.60;;;1.33;;
41903;SDS011;27586;51.124;4.182;2022-07-23T14:59:18;1.20;;;1.10;;
41903;SDS011;27586;51.124;4.182;2022-07-23T15:01:44;1.48;;;1.10;;
41903;SDS011;27586;51.124;4.182;2022-07-23T15:04:10;1.73;;;1.20;;
41903;SDS011;27586;51.124;4.182;2022-07-23T15:06:35;0.93;;;0.88;;
41903;SDS011;27586;51.124;4.182;2022-07-23T15:09:01;1.20;;;1.10;;
41903;SDS011;27586;51.124;4.182;2022-07-23T15:11:27;1.17;;;1.00;;
41903;SDS011;27586;51.124;4.182;2022-07-23T15:13:56;1.10;;;0.90;;
41903;SDS011;27586;51.124;4.182;2022-07-23T15:16:22;2.20;;;1.00;;
41903;SDS011;27586;51.124;4.182;2022-07-23T15:18:47;2.25;;;1.58;;
41903;SDS011;27586;51.124;4.182;2022-07-23T15:21:13;1.17;;;1.08;;
41903;SDS011;27586;51.124;4.182;2022-07-23T15:23:39;1.67;;;1.08;;
41903;SDS011;27586;51.124;4.182;2022-07-23T15:26:05;1.13;;;0.98;;
41903;SDS011;27586;51.124;4.182;2022-07-23T15:28:32;1.10;;;1.00;;
41903;SDS011;27586;51.124;4.182;2022-07-23T15:30:58;1.80;;;1.20;;
41903;SDS011;27586;51.124;4.182;2022-07-23T15:33:24;1.50;;;1.10;;
41903;SDS011;27586;51.124;4.182;2022-07-23T15:35:49;1.13;;;1.00;;
41903;SDS011;27586;51.124;4.182;2022-07-23T15:38:17;1.50;;;1.20;;